Information Last Ob Photographs Meteogram Network Table Neighbors Monthly Summaries Observation History Wind Roses Custom Wind Roses Data Calendar Satellite Cloud Product Download Terminal Aerodome Forecast

Most Recent Observation

This application displays the last observation received by the IEM from this site. The time stamp is in America/Chicago timezone.

Observation Local Time14 Apr 2024, 9:52 PM
Observation UTC Time2024-04-15T02:52:00Z
Air Temp [F]77
Maximum Air Temperature [F]91
Minimum Air Temperature [F]77
Dew Point [F]64.4
Wind DirectionSSE (160 degrees)
Wind Speed [knots]13
Altimeter [inches]29.88
Raw Observation/ProductKABI 150252Z 16013KT 10SM CLR 25/18 A2988
Cloud Layer 1: CLR ( feet)

This data was provided by a JSON(P) webservice. You can find more JSON services.